Time;durP1;ratioP1;P1;durP2;ratioP2;P2;SDS_P1;SDS_P2;PMS_P1;PMS_P2;Temp;Humidity;BMP_temperature;BMP_pressure;BME280_temperature;BME280_humidity;BME280_pressure;Samples;Min_cycle;Max_cycle;Signal;HPM_P1;HPM_P2
2023/07/29 00:02:18;;;;;;;;;;;18.30;99.90;;;;;;5139395;27;19908;-67
2023/07/29 00:04:44;;;;;;;;;;;18.30;99.90;;;;;;5139743;27;19908;-67
2023/07/29 00:07:09;;;;;;;;;;;18.30;99.90;;;;;;5139268;27;19912;-67
2023/07/29 00:09:35;;;;;;;;;;;18.30;99.90;;;;;;5139122;27;19908;-67
2023/07/29 00:12:01;;;;;;;;;;;18.30;99.90;;;;;;5139167;27;19907;-67
2023/07/29 00:14:26;;;;;;;;;;;18.30;99.90;;;;;;5139333;27;19915;-67
2023/07/29 00:16:52;;;;;;;;;;;18.30;99.90;;;;;;5139185;27;19918;-67
2023/07/29 00:19:18;;;;;;;;;;;18.30;99.90;;;;;;5138921;27;19907;-67
2023/07/29 00:21:43;;;;;;;;;;;18.20;99.90;;;;;;5139226;27;19908;-67
2023/07/29 00:24:09;;;;;;;;;;;18.20;99.90;;;;;;5138986;27;19960;-67
2023/07/29 00:26:35;;;;;;;;;;;18.30;99.90;;;;;;5139226;27;20354;-67
2023/07/29 00:29:00;;;;;;;;;;;18.30;99.90;;;;;;5139157;27;19907;-67
2023/07/29 00:31:26;;;;;;;;;;;18.30;99.90;;;;;;5139177;27;19915;-67
2023/07/29 00:33:52;;;;;;;;;;;18.30;99.90;;;;;;5138753;27;19911;-67
2023/07/29 00:36:18;;;;;;;;;;;18.30;99.90;;;;;;5139477;28;19935;-67
2023/07/29 00:38:43;;;;;;;;;;;18.30;99.90;;;;;;5138846;28;19952;-67
2023/07/29 00:41:13;;;;;;;;;;;18.30;99.90;;;;;;5139058;28;19938;-67
2023/07/29 00:43:38;;;;;;;;;;;18.30;99.90;;;;;;5139078;28;19908;-67
2023/07/29 00:46:04;;;;;;;;;;;18.30;99.90;;;;;;5138850;28;20042;-67
2023/07/29 00:48:30;;;;;;;;;;;18.30;99.90;;;;;;5138753;28;20007;-67
2023/07/29 00:50:55;;;;;;;;;;;18.30;99.90;;;;;;5139248;28;19943;-67
2023/07/29 00:53:21;;;;;;;;;;;18.30;99.90;;;;;;5130918;28;19918;-67
2023/07/29 00:55:47;;;;;;;;;;;18.20;99.90;;;;;;5117948;28;20048;-67
2023/07/29 00:58:13;;;;;;;;;;;18.30;99.90;;;;;;5118361;28;19908;-67
2023/07/29 01:00:39;;;;;;;;;;;18.30;99.90;;;;;;5118634;28;19972;-67
2023/07/29 01:03:05;;;;;;;;;;;18.30;99.90;;;;;;5118119;28;19908;-67
2023/07/29 01:05:36;;;;;;;;;;;18.30;99.90;;;;;;5119885;28;19908;-67
2023/07/29 01:08:08;;;;;;;;;;;18.20;99.90;;;;;;5122315;28;19908;-67
2023/07/29 01:10:41;;;;;;;;;;;18.20;99.90;;;;;;5126544;27;20049;-67
2023/07/29 01:13:16;;;;;;;;;;;18.20;99.90;;;;;;5140977;27;20014;-67
2023/07/29 01:15:48;;;;;;;;;;;18.20;99.90;;;;;;5136426;27;20362;-67
2023/07/29 01:18:23;;;;;;;;;;;18.10;99.90;;;;;;5122095;28;19923;-67
2023/07/29 01:20:51;;;;;;;;;;;18.10;99.90;;;;;;5121764;28;19920;-67
2023/07/29 01:23:23;;;;;;;;;;;18.10;99.90;;;;;;5128316;27;19919;-67
2023/07/29 01:25:48;;;;;;;;;;;18.20;99.90;;;;;;5128734;27;20363;-67
2023/07/29 01:28:14;;;;;;;;;;;18.10;99.90;;;;;;5122570;27;19983;-67
2023/07/29 01:30:41;;;;;;;;;;;18.10;99.90;;;;;;5124782;27;19911;-67
2023/07/29 01:33:12;;;;;;;;;;;18.10;99.90;;;;;;5121601;28;19916;-68
2023/07/29 01:35:44;;;;;;;;;;;18.10;99.90;;;;;;5135127;27;19907;-67
2023/07/29 01:38:14;;;;;;;;;;;18.20;99.90;;;;;;5142083;27;19946;-66
2023/07/29 01:40:40;;;;;;;;;;;18.10;99.90;;;;;;5142370;27;20278;-67
2023/07/29 01:43:08;;;;;;;;;;;18.10;99.90;;;;;;5142061;27;19907;-67
2023/07/29 01:45:37;;;;;;;;;;;18.10;99.90;;;;;;5142031;27;19914;-67
2023/07/29 01:48:04;;;;;;;;;;;18.10;99.90;;;;;;5126256;27;19908;-67
2023/07/29 01:50:31;;;;;;;;;;;18.10;99.90;;;;;;5121618;28;19949;-67
2023/07/29 01:52:57;;;;;;;;;;;18.10;99.90;;;;;;5121126;28;19912;-67
2023/07/29 01:55:23;;;;;;;;;;;18.10;99.90;;;;;;5121492;28;20037;-67
2023/07/29 01:57:48;;;;;;;;;;;18.00;99.90;;;;;;5121370;28;19908;-67
2023/07/29 02:00:14;;;;;;;;;;;18.00;99.90;;;;;;5121260;28;19907;-67
2023/07/29 02:02:41;;;;;;;;;;;18.10;99.90;;;;;;5120870;28;19912;-67
2023/07/29 02:05:06;;;;;;;;;;;18.00;99.90;;;;;;5120921;28;20021;-67
2023/07/29 02:07:32;;;;;;;;;;;18.10;99.90;;;;;;5120939;28;19912;-67
2023/07/29 02:09:58;;;;;;;;;;;18.10;99.90;;;;;;5120858;28;19912;-67
2023/07/29 02:12:24;;;;;;;;;;;18.10;99.90;;;;;;5120755;28;20406;-67
2023/07/29 02:14:49;;;;;;;;;;;18.10;99.90;;;;;;5120647;28;19912;-67
2023/07/29 02:17:15;;;;;;;;;;;18.10;99.90;;;;;;5119903;28;19908;-67
2023/07/29 02:19:41;;;;;;;;;;;18.00;99.90;;;;;;5120450;28;19920;-67
2023/07/29 02:22:06;;;;;;;;;;;18.10;99.90;;;;;;5120601;28;19908;-67
2023/07/29 02:24:32;;;;;;;;;;;18.10;99.90;;;;;;5135861;27;20370;-67
2023/07/29 02:26:58;;;;;;;;;;;18.10;99.90;;;;;;5141404;27;20358;-66
2023/07/29 02:29:24;;;;;;;;;;;18.10;99.90;;;;;;5141087;27;19907;-67
2023/07/29 02:31:50;;;;;;;;;;;18.10;99.90;;;;;;5140938;27;20399;-67
2023/07/29 02:34:16;;;;;;;;;;;18.10;99.90;;;;;;5126173;27;19984;-67
2023/07/29 02:36:42;;;;;;;;;;;18.10;99.90;;;;;;5120848;27;19912;-67
2023/07/29 02:39:07;;;;;;;;;;;18.10;99.90;;;;;;5128888;27;20421;-66
2023/07/29 02:41:33;;;;;;;;;;;18.10;99.90;;;;;;5140854;27;19956;-67
2023/07/29 02:43:59;;;;;;;;;;;18.10;99.90;;;;;;5126839;27;19915;-67
2023/07/29 02:46:24;;;;;;;;;;;18.10;99.90;;;;;;5118803;28;19929;-67
2023/07/29 02:48:50;;;;;;;;;;;18.10;99.90;;;;;;5119632;28;20319;-67
2023/07/29 02:51:16;;;;;;;;;;;18.10;99.90;;;;;;5119912;28;19908;-67
2023/07/29 02:53:41;;;;;;;;;;;18.10;99.90;;;;;;5120161;28;20423;-67
2023/07/29 02:56:09;;;;;;;;;;;18.10;99.90;;;;;;5131905;27;19908;-67
2023/07/29 02:58:34;;;;;;;;;;;18.00;99.90;;;;;;5140713;27;20366;-67
2023/07/29 03:01:01;;;;;;;;;;;18.10;99.90;;;;;;5140750;27;19976;-67
2023/07/29 03:03:27;;;;;;;;;;;18.10;99.90;;;;;;5140631;27;19914;-67
2023/07/29 03:06:03;;;;;;;;;;;18.00;99.90;;;;;;5140705;27;19911;-67
2023/07/29 03:08:29;;;;;;;;;;;18.00;99.90;;;;;;5140295;27;19931;-67
2023/07/29 03:10:55;;;;;;;;;;;18.00;99.90;;;;;;5140362;27;19907;-67
2023/07/29 03:13:21;;;;;;;;;;;18.00;99.90;;;;;;5140431;27;20345;-67
2023/07/29 03:15:46;;;;;;;;;;;18.00;99.90;;;;;;5140201;27;19958;-67
2023/07/29 03:18:12;;;;;;;;;;;18.00;99.90;;;;;;5140441;27;19979;-67
2023/07/29 03:20:38;;;;;;;;;;;18.00;99.90;;;;;;5139945;27;20006;-67
2023/07/29 03:23:03;;;;;;;;;;;17.90;99.90;;;;;;5137783;27;19918;-67
2023/07/29 03:25:29;;;;;;;;;;;17.90;99.90;;;;;;5121340;27;19908;-67
2023/07/29 03:27:55;;;;;;;;;;;17.90;99.90;;;;;;5139991;27;19947;-67
2023/07/29 03:30:21;;;;;;;;;;;17.80;99.90;;;;;;5140183;27;19911;-67
2023/07/29 03:32:47;;;;;;;;;;;17.80;99.90;;;;;;5126665;27;19912;-67
2023/07/29 03:35:13;;;;;;;;;;;17.80;99.90;;;;;;5119345;28;19922;-67
2023/07/29 03:37:39;;;;;;;;;;;17.70;99.90;;;;;;5119198;28;20456;-67
2023/07/29 03:40:05;;;;;;;;;;;17.70;99.90;;;;;;5119603;28;19908;-67
2023/07/29 03:42:31;;;;;;;;;;;17.70;99.90;;;;;;5119338;28;19961;-67
2023/07/29 03:44:56;;;;;;;;;;;17.60;99.90;;;;;;5119346;27;19908;-66
2023/07/29 03:47:22;;;;;;;;;;;17.60;99.90;;;;;;5131262;27;19912;-67
2023/07/29 03:49:48;;;;;;;;;;;17.60;99.90;;;;;;5120230;27;19914;-67
2023/07/29 03:52:13;;;;;;;;;;;17.50;99.90;;;;;;5122682;27;19918;-67
2023/07/29 03:54:39;;;;;;;;;;;17.50;99.90;;;;;;5127811;27;20420;-67
2023/07/29 03:57:05;;;;;;;;;;;17.40;99.90;;;;;;5139579;27;19907;-67
2023/07/29 03:59:31;;;;;;;;;;;17.40;99.90;;;;;;5123646;27;20358;-67
2023/07/29 04:01:56;;;;;;;;;;;17.40;99.90;;;;;;5118947;28;19908;-67
2023/07/29 04:04:22;;;;;;;;;;;17.40;99.90;;;;;;5118985;28;19958;-67
2023/07/29 04:06:47;;;;;;;;;;;17.30;99.90;;;;;;5118685;28;20592;-67
2023/07/29 04:09:14;;;;;;;;;;;17.30;99.90;;;;;;5118638;28;19930;-67
2023/07/29 04:11:40;;;;;;;;;;;17.20;99.90;;;;;;5134178;27;19928;-67
2023/07/29 04:14:05;;;;;;;;;;;17.20;99.90;;;;;;5139311;27;20422;-67
2023/07/29 04:16:31;;;;;;;;;;;17.20;99.90;;;;;;5139164;27;19915;-67
2023/07/29 04:18:56;;;;;;;;;;;17.10;99.90;;;;;;5139158;27;20381;-67
2023/07/29 04:21:22;;;;;;;;;;;17.10;99.90;;;;;;5138684;27;19928;-67
2023/07/29 04:23:48;;;;;;;;;;;17.00;99.90;;;;;;5139317;27;19907;-67
2023/07/29 04:26:13;;;;;;;;;;;17.00;99.90;;;;;;5139225;27;19907;-67
2023/07/29 04:28:39;;;;;;;;;;;17.00;99.90;;;;;;5139480;27;19998;-67
2023/07/29 04:31:04;;;;;;;;;;;16.90;99.90;;;;;;5139000;27;19908;-67
2023/07/29 04:33:30;;;;;;;;;;;16.90;99.90;;;;;;5138992;27;19922;-66
2023/07/29 04:35:56;;;;;;;;;;;16.90;99.90;;;;;;5138791;27;19907;-67
2023/07/29 04:38:22;;;;;;;;;;;16.90;99.90;;;;;;5139051;28;19914;-67
2023/07/29 04:40:50;;;;;;;;;;;16.80;99.90;;;;;;5143818;27;19907;-67
2023/07/29 04:43:16;;;;;;;;;;;16.90;99.90;;;;;;5145764;27;19929;-67
2023/07/29 04:45:42;;;;;;;;;;;16.80;99.90;;;;;;5145911;27;19907;-67
2023/07/29 04:48:08;;;;;;;;;;;16.90;99.90;;;;;;5130270;27;19929;-67
2023/07/29 04:50:33;;;;;;;;;;;16.90;99.90;;;;;;5124801;28;20316;-67
2023/07/29 04:52:59;;;;;;;;;;;16.90;99.90;;;;;;5124828;28;19919;-67
2023/07/29 04:55:25;;;;;;;;;;;16.90;99.90;;;;;;5128903;27;19911;-67
2023/07/29 04:57:50;;;;;;;;;;;16.90;99.90;;;;;;5145127;27;19932;-67
2023/07/29 05:00:16;;;;;;;;;;;17.00;99.90;;;;;;5139219;27;19915;-67
2023/07/29 05:02:42;;;;;;;;;;;16.90;99.90;;;;;;5124784;28;19915;-67
2023/07/29 05:05:07;;;;;;;;;;;17.00;99.90;;;;;;5125113;28;19908;-67
2023/07/29 05:07:34;;;;;;;;;;;17.00;99.90;;;;;;5125013;28;20432;-67
2023/07/29 05:10:00;;;;;;;;;;;17.00;99.90;;;;;;5124826;28;20294;-66
2023/07/29 05:12:26;;;;;;;;;;;17.00;99.90;;;;;;5130983;27;19915;-67
2023/07/29 05:14:52;;;;;;;;;;;17.00;99.90;;;;;;5145667;27;19908;-68
2023/07/29 05:17:17;;;;;;;;;;;17.10;99.90;;;;;;5145741;27;19914;-67
2023/07/29 05:19:43;;;;;;;;;;;17.10;99.90;;;;;;5145203;27;19920;-67
2023/07/29 05:22:10;;;;;;;;;;;17.10;99.90;;;;;;5145379;27;19913;-67
2023/07/29 05:24:35;;;;;;;;;;;17.10;99.90;;;;;;5145696;27;19976;-67
2023/07/29 05:27:01;;;;;;;;;;;17.20;99.90;;;;;;5126793;27;19995;-67
2023/07/29 05:29:29;;;;;;;;;;;17.20;99.90;;;;;;5144422;27;20289;-67
2023/07/29 05:31:54;;;;;;;;;;;17.20;99.90;;;;;;5145246;27;19990;-67
2023/07/29 05:34:20;;;;;;;;;;;17.30;99.90;;;;;;5145427;27;19919;-67
2023/07/29 05:36:45;;;;;;;;;;;17.30;99.90;;;;;;5145459;27;20282;-67
2023/07/29 05:39:12;;;;;;;;;;;17.30;99.90;;;;;;5145354;27;19908;-67
2023/07/29 05:41:37;;;;;;;;;;;17.40;99.90;;;;;;5145207;27;19907;-67
2023/07/29 05:44:03;;;;;;;;;;;17.40;99.90;;;;;;5145503;27;19915;-67
2023/07/29 05:46:28;;;;;;;;;;;17.40;99.90;;;;;;5145327;27;19972;-67
2023/07/29 05:48:54;;;;;;;;;;;17.40;99.90;;;;;;5139293;27;19908;-67
2023/07/29 05:51:20;;;;;;;;;;;17.40;99.90;;;;;;5122327;28;20006;-67
2023/07/29 05:53:45;;;;;;;;;;;17.40;99.90;;;;;;5117776;27;19965;-67
2023/07/29 05:56:11;;;;;;;;;;;17.40;99.90;;;;;;5120434;28;19918;-67
2023/07/29 05:58:37;;;;;;;;;;;17.40;99.90;;;;;;5132614;27;20002;-67
2023/07/29 06:01:02;;;;;;;;;;;17.40;99.90;;;;;;5120344;27;19951;-67
2023/07/29 06:03:28;;;;;;;;;;;17.40;99.90;;;;;;5131642;27;19912;-67
2023/07/29 06:05:54;;;;;;;;;;;17.50;99.90;;;;;;5120693;28;19976;-67
2023/07/29 06:08:19;;;;;;;;;;;17.50;99.90;;;;;;5121058;27;19912;-67
2023/07/29 06:10:45;;;;;;;;;;;17.60;99.90;;;;;;5119856;28;20043;-67
2023/07/29 06:13:11;;;;;;;;;;;17.50;99.90;;;;;;5120298;27;19998;-67
2023/07/29 06:15:36;;;;;;;;;;;17.60;99.90;;;;;;5120464;28;19915;-67
2023/07/29 06:18:02;;;;;;;;;;;17.60;99.90;;;;;;5132715;27;19960;-67
2023/07/29 06:20:28;;;;;;;;;;;17.60;99.90;;;;;;5140854;27;19920;-67
2023/07/29 06:22:54;;;;;;;;;;;17.70;99.90;;;;;;5137948;27;20539;-67
2023/07/29 06:25:19;;;;;;;;;;;17.70;99.90;;;;;;5141062;27;19911;-67
2023/07/29 06:27:45;;;;;;;;;;;17.80;99.90;;;;;;5130766;27;19912;-66
2023/07/29 06:30:11;;;;;;;;;;;17.70;99.90;;;;;;5120138;28;19915;-67
2023/07/29 06:32:36;;;;;;;;;;;17.70;99.90;;;;;;5122302;27;19960;-66
2023/07/29 06:35:02;;;;;;;;;;;17.70;99.90;;;;;;5129567;27;19942;-67
2023/07/29 06:37:27;;;;;;;;;;;17.70;99.90;;;;;;5132943;27;19911;-67
2023/07/29 06:39:53;;;;;;;;;;;17.80;99.90;;;;;;5121829;27;19923;-67
2023/07/29 06:42:19;;;;;;;;;;;17.70;99.90;;;;;;5130044;27;19911;-67
2023/07/29 06:44:45;;;;;;;;;;;17.80;99.90;;;;;;5129017;27;19912;-67
2023/07/29 06:47:11;;;;;;;;;;;17.80;99.90;;;;;;5128965;27;19911;-67
2023/07/29 06:49:37;;;;;;;;;;;17.80;99.90;;;;;;5130735;27;20330;-67
2023/07/29 06:52:02;;;;;;;;;;;17.80;99.90;;;;;;5128028;27;19912;-67
2023/07/29 06:54:28;;;;;;;;;;;17.80;99.90;;;;;;5120214;28;20386;-67
2023/07/29 06:56:54;;;;;;;;;;;17.90;99.90;;;;;;5133550;27;19972;-67
2023/07/29 06:59:19;;;;;;;;;;;17.80;99.90;;;;;;5140257;27;20018;-67
2023/07/29 07:01:45;;;;;;;;;;;17.80;99.90;;;;;;5128251;27;20054;-67
2023/07/29 07:04:11;;;;;;;;;;;17.80;99.90;;;;;;5127930;27;19915;-67
2023/07/29 07:06:36;;;;;;;;;;;17.80;99.90;;;;;;5127163;27;19972;-67
2023/07/29 07:09:02;;;;;;;;;;;17.80;99.90;;;;;;5134828;27;19918;-66
2023/07/29 07:11:28;;;;;;;;;;;17.80;99.90;;;;;;5135251;27;19935;-67
2023/07/29 07:13:53;;;;;;;;;;;17.70;99.90;;;;;;5124614;27;19919;-66
2023/07/29 07:16:19;;;;;;;;;;;17.70;99.90;;;;;;5138169;27;19918;-67
2023/07/29 07:18:45;;;;;;;;;;;17.80;99.90;;;;;;5130116;27;19920;-66
2023/07/29 07:21:10;;;;;;;;;;;17.10;99.90;;;;;;5116616;27;21748;-67
2023/07/29 07:23:36;;;;;;;;;;;17.80;99.90;;;;;;5135391;27;19937;-67
2023/07/29 07:26:02;;;;;;;;;;;17.90;99.90;;;;;;5138358;27;20391;-67
2023/07/29 07:28:28;;;;;;;;;;;17.90;99.90;;;;;;5138777;27;19911;-67
2023/07/29 07:30:55;;;;;;;;;;;17.90;99.90;;;;;;5139330;27;19907;-67
2023/07/29 07:33:24;;;;;;;;;;;17.90;99.90;;;;;;5135587;27;19919;-66
2023/07/29 07:35:49;;;;;;;;;;;17.90;99.90;;;;;;5138907;27;20366;-67
2023/07/29 07:38:15;;;;;;;;;;;17.90;99.90;;;;;;5138388;27;19943;-67
2023/07/29 07:40:41;;;;;;;;;;;18.00;99.90;;;;;;5137540;27;19915;-67
2023/07/29 07:43:06;;;;;;;;;;;18.00;99.90;;;;;;5136157;27;19915;-67
2023/07/29 07:45:32;;;;;;;;;;;18.10;99.90;;;;;;5139306;27;19946;-67
2023/07/29 07:47:58;;;;;;;;;;;18.10;99.90;;;;;;5138666;27;19947;-67
2023/07/29 07:50:24;;;;;;;;;;;18.00;99.90;;;;;;5124114;27;19911;-67
2023/07/29 07:52:50;;;;;;;;;;;18.00;99.90;;;;;;5135374;27;20402;-66
2023/07/29 07:55:16;;;;;;;;;;;18.10;99.90;;;;;;5116664;28;19907;-66
2023/07/29 07:57:41;;;;;;;;;;;18.10;99.90;;;;;;5116297;28;19951;-67
2023/07/29 08:00:07;;;;;;;;;;;18.10;99.90;;;;;;5124921;27;19912;-66
2023/07/29 08:02:33;;;;;;;;;;;18.20;99.90;;;;;;5130471;27;19911;-67
2023/07/29 08:04:59;;;;;;;;;;;18.30;99.90;;;;;;5134650;27;19979;-67
2023/07/29 08:07:25;;;;;;;;;;;18.20;99.90;;;;;;5118250;28;19915;-67
2023/07/29 08:09:50;;;;;;;;;;;18.30;99.90;;;;;;5121368;27;20270;-66
2023/07/29 08:12:16;;;;;;;;;;;18.40;99.90;;;;;;5134377;27;19990;-67
2023/07/29 08:14:41;;;;;;;;;;;18.40;99.90;;;;;;5135305;27;19916;-67
2023/07/29 08:17:07;;;;;;;;;;;18.40;99.90;;;;;;5127164;27;20401;-67
2023/07/29 08:19:35;;;;;;;;;;;18.50;99.90;;;;;;5128908;27;19966;-67
2023/07/29 08:22:02;;;;;;;;;;;18.50;99.90;;;;;;5135937;27;20339;-67
2023/07/29 08:24:28;;;;;;;;;;;18.60;99.90;;;;;;5133153;27;19912;-67
2023/07/29 08:26:54;;;;;;;;;;;18.70;99.90;;;;;;5121509;27;19911;-66
2023/07/29 08:29:20;;;;;;;;;;;18.70;99.90;;;;;;5128411;27;19972;-66
2023/07/29 08:31:46;;;;;;;;;;;18.80;99.90;;;;;;5131501;27;19972;-67
2023/07/29 08:34:12;;;;;;;;;;;19.00;99.90;;;;;;5125856;27;19947;-67
2023/07/29 08:36:37;;;;;;;;;;;19.10;99.90;;;;;;5127871;27;19918;-66
2023/07/29 08:39:03;;;;;;;;;;;19.10;99.90;;;;;;5122257;28;19911;-66
2023/07/29 08:41:38;;;;;;;;;;;19.00;99.90;;;;;;5106339;28;19939;-67
2023/07/29 08:44:03;;;;;;;;;;;19.10;99.90;;;;;;5105438;28;19919;-67
2023/07/29 08:46:29;;;;;;;;;;;19.40;99.90;;;;;;5121077;28;19912;-66
2023/07/29 08:48:55;;;;;;;;;;;18.80;99.90;;;;;;5106480;28;20365;-67
2023/07/29 08:51:21;;;;;;;;;;;19.50;99.90;;;;;;5126320;28;19962;-67
2023/07/29 08:53:47;;;;;;;;;;;19.70;99.90;;;;;;5129541;28;20014;-66
2023/07/29 08:56:13;;;;;;;;;;;19.70;99.90;;;;;;5127114;28;19943;-67
2023/07/29 08:58:39;;;;;;;;;;;19.80;99.90;;;;;;5129583;28;19911;-67
2023/07/29 09:01:05;;;;;;;;;;;19.80;99.90;;;;;;5094899;28;19915;-67
2023/07/29 09:03:31;;;;;;;;;;;19.50;99.90;;;;;;5119046;28;19914;-67
2023/07/29 09:05:58;;;;;;;;;;;19.00;99.90;;;;;;5116606;28;19908;-67
2023/07/29 09:08:24;;;;;;;;;;;19.40;99.90;;;;;;5115156;28;19958;-67
2023/07/29 09:10:50;;;;;;;;;;;19.40;99.90;;;;;;5114881;28;19915;-67
2023/07/29 09:13:15;;;;;;;;;;;19.30;99.90;;;;;;5114416;28;19912;-67
2023/07/29 09:15:42;;;;;;;;;;;19.30;99.90;;;;;;5115146;28;19908;-67
2023/07/29 09:18:17;;;;;;;;;;;19.30;99.90;;;;;;5115023;28;19914;-67
2023/07/29 09:20:43;;;;;;;;;;;19.30;99.90;;;;;;5115554;28;20010;-67
2023/07/29 09:23:12;;;;;;;;;;;19.30;99.90;;;;;;5117745;28;19961;-67
2023/07/29 09:25:38;;;;;;;;;;;19.50;99.90;;;;;;5118178;28;19908;-67
2023/07/29 09:28:12;;;;;;;;;;;19.50;99.90;;;;;;5121850;28;19908;-66
2023/07/29 09:30:39;;;;;;;;;;;19.50;99.90;;;;;;5121806;28;19987;-66
2023/07/29 09:33:05;;;;;;;;;;;19.70;99.90;;;;;;5121952;28;19957;-66
2023/07/29 09:35:33;;;;;;;;;;;19.80;99.90;;;;;;5121523;28;19912;-67
2023/07/29 09:37:58;;;;;;;;;;;19.90;99.90;;;;;;5121370;28;20398;-67
2023/07/29 09:40:25;;;;;;;;;;;19.90;99.90;;;;;;5121448;28;19908;-66
2023/07/29 09:42:54;;;;;;;;;;;20.00;99.90;;;;;;5121382;28;20362;-66
2023/07/29 09:45:21;;;;;;;;;;;20.10;99.90;;;;;;5121297;28;19907;-67
2023/07/29 09:47:46;;;;;;;;;;;20.20;99.90;;;;;;5121290;28;19908;-67
2023/07/29 09:50:12;;;;;;;;;;;20.40;99.90;;;;;;5121395;28;19915;-66
2023/07/29 09:52:38;;;;;;;;;;;20.30;99.90;;;;;;5121134;28;20456;-67
2023/07/29 09:55:03;;;;;;;;;;;20.50;99.90;;;;;;5121290;28;19908;-66
2023/07/29 09:57:29;;;;;;;;;;;20.70;99.90;;;;;;5121133;28;19915;-66
2023/07/29 09:59:56;;;;;;;;;;;21.00;99.90;;;;;;5120831;28;19908;-66
2023/07/29 10:02:22;;;;;;;;;;;21.30;99.90;;;;;;5121335;28;19912;-67
2023/07/29 10:04:47;;;;;;;;;;;21.60;99.90;;;;;;5121008;28;19947;-66
2023/07/29 10:07:14;;;;;;;;;;;21.80;99.90;;;;;;5121068;28;19915;-66
2023/07/29 10:09:40;;;;;;;;;;;22.10;99.90;;;;;;5120969;28;19915;-67
2023/07/29 10:12:06;;;;;;;;;;;22.30;99.90;;;;;;5120482;28;19908;-66
2023/07/29 10:14:32;;;;;;;;;;;22.60;99.90;;;;;;5120630;28;20367;-66
2023/07/29 10:16:58;;;;;;;;;;;22.80;99.90;;;;;;5120299;28;19955;-67
2023/07/29 10:19:25;;;;;;;;;;;23.30;99.90;;;;;;5120397;28;19914;-66
2023/07/29 10:21:51;;;;;;;;;;;24.00;99.90;;;;;;5120506;28;19916;-67
2023/07/29 10:24:18;;;;;;;;;;;24.10;99.90;;;;;;5120550;28;20347;-67
2023/07/29 10:26:49;;;;;;;;;;;24.80;99.90;;;;;;5120263;28;20440;-66
2023/07/29 10:29:18;;;;;;;;;;;25.00;99.90;;;;;;5120457;28;19911;-66
2023/07/29 10:31:44;;;;;;;;;;;25.10;99.90;;;;;;5101752;28;20002;-66
2023/07/29 10:34:10;;;;;;;;;;;24.70;99.90;;;;;;5120308;28;19962;-66
2023/07/29 10:36:37;;;;;;;;;;;24.00;99.90;;;;;;5120352;28;19907;-66
2023/07/29 10:39:04;;;;;;;;;;;24.20;99.90;;;;;;5119794;28;19908;-66
2023/07/29 10:41:48;;;;;;;;;;;24.60;99.90;;;;;;5120533;28;19915;-66
2023/07/29 10:44:32;;;;;;;;;;;24.50;99.90;;;;;;5120224;28;19930;-66
2023/07/29 10:46:58;;;;;;;;;;;23.80;99.90;;;;;;5119934;28;20408;-66
2023/07/29 10:49:23;;;;;;;;;;;23.20;99.90;;;;;;5120364;28;19955;-66
2023/07/29 10:51:49;;;;;;;;;;;23.10;99.90;;;;;;5120011;28;19957;-66
2023/07/29 10:54:15;;;;;;;;;;;22.70;99.90;;;;;;5120101;28;19912;-66
2023/07/29 10:56:42;;;;;;;;;;;22.40;99.90;;;;;;5120381;28;19911;-66
2023/07/29 10:59:11;;;;;;;;;;;22.40;99.90;;;;;;5119969;28;19925;-66
2023/07/29 11:01:38;;;;;;;;;;;22.70;99.90;;;;;;5119783;28;19915;-66
2023/07/29 11:04:19;;;;;;;;;;;23.20;99.90;;;;;;5120098;28;19912;-66
2023/07/29 11:07:03;;;;;;;;;;;23.40;99.90;;;;;;5119942;28;19908;-66
2023/07/29 11:09:41;;;;;;;;;;;23.50;99.90;;;;;;5119887;28;19907;-66
2023/07/29 11:12:26;;;;;;;;;;;23.60;99.90;;;;;;5120091;28;19929;-66
2023/07/29 11:14:52;;;;;;;;;;;23.60;99.90;;;;;;5119525;28;19964;-66
2023/07/29 11:17:17;;;;;;;;;;;23.40;99.90;;;;;;5119998;28;19912;-66
2023/07/29 11:19:44;;;;;;;;;;;22.90;99.90;;;;;;5119284;28;19923;-66
2023/07/29 11:22:10;;;;;;;;;;;22.60;99.90;;;;;;5119679;28;19914;-66
2023/07/29 11:24:35;;;;;;;;;;;22.60;99.90;;;;;;5115964;28;20375;-66
2023/07/29 11:27:01;;;;;;;;;;;22.20;99.90;;;;;;5118386;28;19908;-66
2023/07/29 11:29:27;;;;;;;;;;;21.70;99.90;;;;;;5119525;28;20371;-66
2023/07/29 11:31:52;;;;;;;;;;;21.80;99.90;;;;;;5119118;28;19915;-66
2023/07/29 11:34:20;;;;;;;;;;;21.80;99.90;;;;;;5100844;28;19911;-66
2023/07/29 11:36:46;;;;;;;;;;;21.90;99.90;;;;;;5119413;28;19908;-66
2023/07/29 11:39:11;;;;;;;;;;;21.80;99.90;;;;;;5119385;28;19922;-66
2023/07/29 11:41:37;;;;;;;;;;;22.00;99.90;;;;;;5119044;28;19908;-66
2023/07/29 11:44:03;;;;;;;;;;;22.10;99.90;;;;;;5118803;28;19919;-66
2023/07/29 11:46:28;;;;;;;;;;;22.20;99.90;;;;;;5117495;28;19907;-66
2023/07/29 11:48:55;;;;;;;;;;;21.80;99.90;;;;;;5116588;28;19965;-66
2023/07/29 11:51:21;;;;;;;;;;;21.70;99.90;;;;;;5126355;27;20415;-66
2023/07/29 11:53:47;;;;;;;;;;;21.90;99.90;;;;;;5119098;28;19943;-66
2023/07/29 11:56:13;;;;;;;;;;;22.00;99.90;;;;;;5128926;27;19912;-66
2023/07/29 11:58:38;;;;;;;;;;;22.40;99.90;;;;;;5139388;27;19907;-66
2023/07/29 12:01:05;;;;;;;;;;;22.60;99.90;;;;;;5139078;27;20366;-66
2023/07/29 12:03:30;;;;;;;;;;;22.70;99.90;;;;;;5139667;27;20050;-66
2023/07/29 12:05:56;;;;;;;;;;;22.60;99.90;;;;;;5139232;27;19914;-66
2023/07/29 12:08:23;;;;;;;;;;;22.60;99.90;;;;;;5139325;27;19914;-66
2023/07/29 12:10:48;;;;;;;;;;;23.00;99.90;;;;;;5138823;27;20248;-66
2023/07/29 12:13:14;;;;;;;;;;;23.10;99.90;;;;;;5139489;27;19911;-66
2023/07/29 12:15:40;;;;;;;;;;;22.70;99.90;;;;;;5138032;27;19936;-66
2023/07/29 12:18:06;;;;;;;;;;;22.60;99.90;;;;;;5137831;27;20502;-66
2023/07/29 12:20:32;;;;;;;;;;;22.20;99.90;;;;;;5137735;27;19968;-66
2023/07/29 12:23:01;;;;;;;;;;;22.30;99.90;;;;;;5135131;27;19914;-66
2023/07/29 12:25:27;;;;;;;;;;;22.60;99.90;;;;;;5138770;27;19912;-66
2023/07/29 12:27:52;;;;;;;;;;;22.60;99.90;;;;;;5137759;27;19914;-66
2023/07/29 12:30:22;;;;;;;;;;;22.40;99.90;;;;;;5136872;27;19907;-66
2023/07/29 12:32:48;;;;;;;;;;;22.20;99.90;;;;;;5137813;27;20386;-66
2023/07/29 12:35:14;;;;;;;;;;;22.00;99.90;;;;;;5136811;27;19908;-66
2023/07/29 12:37:42;;;;;;;;;;;22.00;99.90;;;;;;5138423;27;20384;-66
2023/07/29 12:40:09;;;;;;;;;;;21.90;99.90;;;;;;5138522;28;19907;-66
2023/07/29 12:42:35;;;;;;;;;;;21.90;99.90;;;;;;5138453;28;19969;-66
2023/07/29 12:45:00;;;;;;;;;;;21.70;99.90;;;;;;5139289;28;19918;-66
2023/07/29 12:47:29;;;;;;;;;;;21.50;99.90;;;;;;5135868;28;19919;-66
2023/07/29 12:49:56;;;;;;;;;;;21.60;99.90;;;;;;5108023;28;19911;-66
2023/07/29 12:52:21;;;;;;;;;;;21.40;99.90;;;;;;5136521;28;19908;-66
2023/07/29 12:54:47;;;;;;;;;;;21.50;99.90;;;;;;5136787;28;19912;-66
2023/07/29 12:57:13;;;;;;;;;;;21.60;99.90;;;;;;5135572;28;19947;-66
2023/07/29 12:59:38;;;;;;;;;;;21.70;99.90;;;;;;5138858;28;19998;-66
2023/07/29 13:02:04;;;;;;;;;;;21.50;99.90;;;;;;5141262;27;19930;-66
2023/07/29 13:04:30;;;;;;;;;;;21.40;99.90;;;;;;5143057;27;20359;-66
2023/07/29 13:06:56;;;;;;;;;;;21.20;99.90;;;;;;5142984;27;19915;-66
2023/07/29 13:09:21;;;;;;;;;;;21.10;99.90;;;;;;5142575;27;20286;-66
2023/07/29 13:11:47;;;;;;;;;;;20.90;99.90;;;;;;5123822;27;19908;-66
2023/07/29 13:14:13;;;;;;;;;;;20.80;99.90;;;;;;5143007;27;19933;-66
2023/07/29 13:16:38;;;;;;;;;;;20.70;99.90;;;;;;5142528;27;20382;-66
2023/07/29 13:19:04;;;;;;;;;;;20.60;99.90;;;;;;5142555;27;19918;-66
2023/07/29 13:21:30;;;;;;;;;;;20.40;99.90;;;;;;5142217;27;19919;-66
2023/07/29 13:23:55;;;;;;;;;;;20.30;99.90;;;;;;5142872;27;19908;-66
2023/07/29 13:26:21;;;;;;;;;;;20.30;99.90;;;;;;5142382;27;19911;-66
2023/07/29 13:28:47;;;;;;;;;;;20.10;99.90;;;;;;5142818;27;19908;-66
2023/07/29 13:31:12;;;;;;;;;;;20.10;99.90;;;;;;5142342;27;19907;-66
2023/07/29 13:33:38;;;;;;;;;;;20.10;99.90;;;;;;5141942;27;19911;-66
2023/07/29 13:36:04;;;;;;;;;;;19.90;99.90;;;;;;5142096;27;19908;-66
2023/07/29 13:38:30;;;;;;;;;;;20.00;99.90;;;;;;5142303;27;19974;-66
2023/07/29 13:40:55;;;;;;;;;;;19.90;99.90;;;;;;5142055;27;19950;-66
2023/07/29 13:43:21;;;;;;;;;;;19.90;99.90;;;;;;5142197;27;19908;-66
2023/07/29 13:45:49;;;;;;;;;;;20.00;99.90;;;;;;5142325;27;20006;-65
2023/07/29 13:48:15;;;;;;;;;;;20.00;99.90;;;;;;5142081;27;19968;-65
2023/07/29 13:50:41;;;;;;;;;;;20.00;99.90;;;;;;5142122;27;19927;-65
2023/07/29 13:53:06;;;;;;;;;;;19.90;99.90;;;;;;5141624;27;20032;-66
2023/07/29 13:55:32;;;;;;;;;;;20.00;99.90;;;;;;5142096;27;19946;-66
2023/07/29 13:57:58;;;;;;;;;;;20.00;99.90;;;;;;5141633;27;20297;-66
2023/07/29 14:00:24;;;;;;;;;;;20.30;99.90;;;;;;5141804;27;20263;-66
2023/07/29 14:02:49;;;;;;;;;;;20.60;99.90;;;;;;5141819;27;20242;-66
2023/07/29 14:05:15;;;;;;;;;;;20.90;99.90;;;;;;5141602;27;19911;-66
2023/07/29 14:07:40;;;;;;;;;;;21.20;99.90;;;;;;5141728;27;19911;-66
2023/07/29 14:10:06;;;;;;;;;;;21.50;99.90;;;;;;5141148;27;19907;-66
2023/07/29 14:12:32;;;;;;;;;;;21.50;99.90;;;;;;5138977;27;19907;-66